Sierra de la Ventana, Argentina
Current Conditions -  °F | °C
As of 3:00 AM on Sunday 23 Nov 2014 (Local Time) from SAZM Reporting Station
Clear Clear  
Wind Chill: 57°   Ceiling: Unl
Heat Index: 57°   Visibility: 6mi
Dew Point: 52°   Wind: 9mph
Humidity: 82%   Direction: 320°NW
Pressure: 29.71"   Gusts: NA
Location:  38.12°S, 61.77°W
Report Text: SAZM 230600Z 32008KT CAVOK 14/11 Q1006
Loading
Personal Weather Stations






























Interactive Weather Map New forecast layout! Learn more

10-Day Weather Forecast

Advertisements
Track Severe Weather on mobile